McClusky, North Dakota
Current Conditions -  °F | °C
As of 6:15 AM on Thursday 29 Jan 2015 (Local Time) from K5H4 Reporting Station
Overcast Overcast  
Wind Chill:   Ceiling: 1600
Heat Index: 19°   Visibility: 10mi
Dew Point: 16°   Wind: 21mph
Humidity: 86%   Direction: 330°NNW
Pressure: 30.37"   Gusts: NA
Location:  47.49°N, 100.44°W
Report Text: K5H4 291215Z AUTO 33018KT 10SM OVC016 M07/M09 A3037 RMK AO2
Loading
Personal Weather Stations






























Interactive Weather Map New forecast layout! Learn more

10-Day Weather Forecast

Advertisements
Track Severe Weather on mobile